Time;durP1;ratioP1;P1;durP2;ratioP2;P2;SDS_P1;SDS_P2;PMS_P1;PMS_P2;Temp;Humidity;BMP_temperature;BMP_pressure;BME280_temperature;BME280_humidity;BME280_pressure;Samples;Min_cycle;Max_cycle;Signal;HPM_P1;HPM_P2
2021/12/21 00:00:13;;;;;;;41.15;19.33;;;;;;;-0.64;76.62;100444.44;343313;28;2121;-64
2021/12/21 00:00:27;;;;;;;47.90;22.42;;;;;;;-0.64;76.83;100439.31;342210;28;1255;-63
2021/12/21 00:00:39;;;;;;;45.92;21.05;;;;;;;-0.65;77.03;100437.59;342271;28;1115;-63
2021/12/21 00:00:52;;;;;;;42.00;18.80;;;;;;;-0.64;77.13;100434.22;342473;28;1146;-63
2021/12/21 00:01:04;;;;;;;35.63;16.55;;;;;;;-0.67;77.37;100439.25;343226;28;1558;-64
2021/12/21 00:01:16;;;;;;;36.25;16.33;;;;;;;-0.70;77.67;100429.81;343664;28;1067;-64
2021/12/21 00:01:28;;;;;;;35.83;16.60;;;;;;;-0.68;77.47;100433.28;344631;28;1054;-63
2021/12/21 00:01:40;;;;;;;34.40;16.38;;;;;;;-0.66;77.53;100434.19;343486;28;1031;-64
2021/12/21 00:01:52;;;;;;;31.33;16.05;;;;;;;-0.63;77.09;100433.38;343358;28;1074;-64
2021/12/21 00:02:04;;;;;;;32.58;16.45;;;;;;;-0.63;77.37;100436.78;344037;28;1813;-66
2021/12/21 00:02:16;;;;;;;33.97;16.88;;;;;;;-0.62;77.50;100435.97;343581;28;1335;-64
2021/12/21 00:02:28;;;;;;;35.28;17.33;;;;;;;-0.67;77.79;100426.47;343448;28;1479;-64
2021/12/21 00:02:46;;;;;;;35.65;17.15;;;;;;;-0.63;78.04;100435.94;343263;28;1035;-64
2021/12/21 00:02:59;;;;;;;33.83;16.38;;;;;;;-0.64;77.97;100429.97;343801;28;1707;-64
2021/12/21 00:03:11;;;;;;;33.83;15.73;;;;;;;-0.62;77.61;100435.97;344141;28;2170;-64
2021/12/21 00:03:24;;;;;;;32.22;15.18;;;;;;;-0.60;77.38;100438.59;344794;28;1007;-64
2021/12/21 00:03:36;;;;;;;31.13;15.00;;;;;;;-0.63;77.67;100431.69;345099;28;916;-65
2021/12/21 00:03:48;;;;;;;30.27;14.43;;;;;;;-0.65;77.48;100437.59;344519;28;2047;-65
2021/12/21 00:04:04;;;;;;;28.77;13.50;;;;;;;-0.65;77.71;100435.03;344739;28;1236;-65
2021/12/21 00:04:16;;;;;;;25.10;12.70;;;;;;;-0.66;77.95;100438.44;345169;28;1076;-65
2021/12/21 00:04:28;;;;;;;27.85;12.10;;;;;;;-0.68;78.14;100434.97;344690;28;1058;-65
2021/12/21 00:04:40;;;;;;;29.02;12.05;;;;;;;-0.65;77.90;100432.47;345106;28;1050;-65
2021/12/21 00:04:53;;;;;;;29.38;12.43;;;;;;;-0.62;78.03;100443.66;345262;28;1111;-65
2021/12/21 00:05:05;;;;;;;26.85;12.45;;;;;;;-0.60;77.54;100430.91;345174;28;1632;-65
2021/12/21 00:05:20;;;;;;;25.25;12.30;;;;;;;-0.61;77.99;100434.28;345431;28;2444;-65
2021/12/21 00:05:32;;;;;;;24.70;11.65;;;;;;;-0.62;77.55;100432.56;346199;28;1082;-65
2021/12/21 00:05:45;;;;;;;22.55;11.32;;;;;;;-0.60;77.91;100433.47;345523;28;1859;-65
2021/12/21 00:05:57;;;;;;;22.98;11.57;;;;;;;-0.60;77.47;100436.03;345266;28;1597;-65
2021/12/21 00:06:09;;;;;;;27.63;12.02;;;;;;;-0.57;77.74;100432.69;344877;28;1172;-65
2021/12/21 00:06:21;;;;;;;26.77;11.68;;;;;;;-0.56;77.50;100437.84;344806;28;1278;-65
2021/12/21 00:06:33;;;;;;;22.63;11.75;;;;;;;-0.58;77.88;100429.28;344960;28;1154;-64
2021/12/21 00:06:45;;;;;;;23.33;11.50;;;;;;;-0.61;77.63;100435.13;344892;28;1062;-64
2021/12/21 00:06:57;;;;;;;25.98;11.25;;;;;;;-0.59;77.75;100432.63;344889;28;1246;-66
2021/12/21 00:07:09;;;;;;;25.15;11.18;;;;;;;-0.57;77.76;100433.53;346069;28;1051;-65
2021/12/21 00:07:21;;;;;;;24.25;11.30;;;;;;;-0.57;77.91;100433.53;345568;28;1082;-65
2021/12/21 00:07:33;;;;;;;25.13;11.57;;;;;;;-0.58;77.38;100436.94;346482;28;1260;-65
2021/12/21 00:07:48;;;;;;;25.98;11.25;;;;;;;-0.62;77.19;100433.44;346095;28;1055;-65
2021/12/21 00:08:03;;;;;;;25.80;11.30;;;;;;;-0.63;77.51;100430.81;346807;28;1170;-65
2021/12/21 00:08:17;;;;;;;24.55;11.15;;;;;;;-0.62;77.44;100437.69;347607;28;1034;-65
2021/12/21 00:08:49;;;;;;;22.75;10.25;;;;;;;-0.65;77.90;100429.94;345693;28;2141;-65
2021/12/21 00:09:02;;;;;;;23.27;9.90;;;;;;;-0.67;77.93;100429.03;346818;28;2425;-65
2021/12/21 00:09:14;;;;;;;23.02;10.27;;;;;;;-0.70;78.31;100428.97;347386;28;1980;-65
2021/12/21 00:09:26;;;;;;;21.35;10.40;;;;;;;-0.68;77.81;100433.28;346236;28;1933;-65
2021/12/21 00:09:38;;;;;;;19.70;9.80;;;;;;;-0.67;78.31;100436.69;344307;28;2466;-65
2021/12/21 00:09:50;;;;;;;18.15;9.35;;;;;;;-0.65;78.11;100432.47;345252;28;1019;-65
2021/12/21 00:10:03;;;;;;;19.35;9.48;;;;;;;-0.62;77.84;100437.69;344837;28;1429;-65
2021/12/21 00:10:17;;;;;;;20.40;9.98;;;;;;;-0.60;78.04;100436.03;344935;28;1106;-65
2021/12/21 00:10:32;;;;;;;19.60;9.40;;;;;;;-0.65;77.67;100432.47;344998;28;1117;-65
2021/12/21 00:10:46;;;;;;;16.63;8.75;;;;;;;-0.70;78.08;100434.06;344984;28;1078;-65
2021/12/21 00:10:59;;;;;;;18.30;8.90;;;;;;;-0.75;77.97;100433.94;345103;28;1379;-65
2021/12/21 00:11:11;;;;;;;18.27;8.75;;;;;;;-0.70;77.82;100434.06;344861;28;1324;-65
2021/12/21 00:11:23;;;;;;;18.50;8.68;;;;;;;-0.67;78.19;100440.09;344999;28;1293;-65
2021/12/21 00:11:36;;;;;;;18.67;8.55;;;;;;;-0.65;78.00;100432.47;344875;28;1240;-65
2021/12/21 00:11:49;;;;;;;21.38;9.05;;;;;;;-0.62;78.27;100445.34;343631;28;1813;-65
2021/12/21 00:12:01;;;;;;;20.00;9.45;;;;;;;-0.61;77.75;100435.13;343268;28;1995;-66
2021/12/21 00:12:17;;;;;;;19.42;9.90;;;;;;;-0.59;78.18;100432.63;343442;28;2291;-65
2021/12/21 00:12:32;;;;;;;20.52;9.85;;;;;;;-0.54;77.87;100436.19;343209;28;2282;-65
2021/12/21 00:13:03;;;;;;;25.90;10.57;;;;;;;-0.54;77.90;100438.72;343677;28;1261;-65
2021/12/21 00:14:13;;;;;;;24.20;11.43;;;;;;;-0.52;77.88;100439.63;344049;28;1897;-65
2021/12/21 00:14:45;;;;;;;27.20;11.30;;;;;;;-0.54;77.81;100436.19;344479;28;2265;-65
2021/12/21 00:15:08;;;;;;;29.02;12.38;;;;;;;-0.52;77.96;100438.78;343351;28;2207;-65
2021/12/21 00:15:33;;;;;;;24.60;11.55;;;;;;;-0.67;78.21;100449.44;343676;28;1924;-65
2021/12/21 00:16:42;;;;;;;32.58;13.63;;;;;;;-0.61;78.36;100440.25;344155;28;1090;-65
2021/12/21 00:17:44;;;;;;;35.38;15.55;;;;;;;-0.80;78.44;100445.72;343714;28;1015;-63
2021/12/21 00:18:01;;;;;;;36.85;15.90;;;;;;;-0.92;78.20;100437.75;343839;28;1274;-62
2021/12/21 00:19:08;;;;;;;34.40;16.50;;;;;;;-0.87;79.43;100442.13;344943;28;1554;-62
2021/12/21 00:21:35;;;;;;;28.27;12.20;;;;;;;-0.71;78.51;100440.84;342888;28;1654;-63
2021/12/21 00:21:42;;;;;;;26.10;11.57;;;;;;;-0.68;78.53;100432.41;341774;28;1684;-64
2021/12/21 00:22:02;;;;;;;22.38;10.48;;;;;;;-0.69;78.38;100436.63;341895;28;1048;-64
2021/12/21 00:22:51;;;;;;;26.27;10.65;;;;;;;-0.70;78.90;100434.06;341716;28;1109;-64
2021/12/21 00:23:58;;;;;;;23.52;9.82;;;;;;;-0.62;78.55;100437.69;343637;28;1246;-63
2021/12/21 00:24:18;;;;;;;22.55;10.02;;;;;;;-0.73;79.52;100436.53;343728;28;1109;-64
2021/12/21 00:24:41;;;;;;;21.08;9.90;;;;;;;-0.73;79.47;100434.84;343720;28;1159;-64
2021/12/21 00:24:53;;;;;;;20.10;10.20;;;;;;;-0.77;80.02;100435.56;343670;28;2756;-64
2021/12/21 00:25:05;;;;;;;23.63;10.90;;;;;;;-0.78;79.48;100430.47;343835;28;1033;-63
2021/12/21 00:25:22;;;;;;;24.65;11.15;;;;;;;-0.81;79.36;100432.06;344470;28;1842;-63
2021/12/21 00:25:34;;;;;;;24.65;10.13;;;;;;;-0.86;79.53;100443.88;344973;28;1219;-64
2021/12/21 00:25:46;;;;;;;26.95;9.80;;;;;;;-0.88;79.63;100437.88;344935;28;1262;-64
2021/12/21 00:26:13;;;;;;;27.40;10.55;;;;;;;-0.89;79.78;100437.81;344839;28;1050;-64
2021/12/21 00:26:25;;;;;;;31.60;13.77;;;;;;;-0.90;80.13;100436.09;344879;28;1144;-64
2021/12/21 00:26:37;;;;;;;29.80;12.80;;;;;;;-0.89;80.17;100438.66;344960;28;1054;-64
2021/12/21 00:26:49;;;;;;;24.65;11.63;;;;;;;-0.92;79.63;100446.25;344836;28;1600;-64
2021/12/21 00:27:08;;;;;;;23.25;11.63;;;;;;;-0.92;80.25;100437.75;344824;28;1110;-64
2021/12/21 00:27:20;;;;;;;30.23;13.38;;;;;;;-0.91;80.24;100434.34;344933;28;1063;-63
2021/12/21 00:27:32;;;;;;;31.65;14.45;;;;;;;-0.92;80.15;100438.59;344307;28;1818;-64
2021/12/21 00:27:46;;;;;;;32.25;15.13;;;;;;;-0.94;80.28;100439.41;345180;28;1102;-64
2021/12/21 00:27:59;;;;;;;33.75;15.68;;;;;;;-0.96;80.28;100439.34;345143;28;1405;-65
2021/12/21 00:28:10;;;;;;;35.58;16.70;;;;;;;-0.98;79.93;100433.34;345208;28;1332;-65
2021/12/21 00:28:24;;;;;;;38.58;16.98;;;;;;;-0.96;80.04;100438.50;345232;28;1264;-65
2021/12/21 00:29:13;;;;;;;33.08;16.35;;;;;;;-0.98;78.88;100435.91;343431;28;1123;-64
2021/12/21 00:29:25;;;;;;;35.75;16.73;;;;;;;-0.98;78.78;100432.50;343885;28;1368;-65
2021/12/21 00:29:37;;;;;;;39.42;16.50;;;;;;;-0.96;78.90;100433.38;344396;28;1855;-65
2021/12/21 00:29:49;;;;;;;41.05;16.02;;;;;;;-0.98;78.10;100433.34;344335;28;1087;-64
2021/12/21 00:30:02;;;;;;;40.13;17.05;;;;;;;-0.99;78.04;100434.16;345027;28;1619;-64
2021/12/21 00:30:14;;;;;;;36.95;17.25;;;;;;;-0.95;77.61;100428.31;345188;28;1070;-65
2021/12/21 00:30:26;;;;;;;38.33;17.23;;;;;;;-0.94;78.55;100431.75;345167;28;2001;-64
2021/12/21 00:30:38;;;;;;;37.08;16.77;;;;;;;-0.93;78.54;100431.75;345231;28;1063;-65
2021/12/21 00:30:51;;;;;;;37.30;16.80;;;;;;;-0.92;79.03;100428.41;345720;28;1871;-64
2021/12/21 00:31:03;;;;;;;39.72;16.77;;;;;;;-0.94;78.87;100432.59;345489;28;1454;-65
2021/12/21 00:31:17;;;;;;;39.28;16.77;;;;;;;-0.93;79.35;100436.00;346168;28;1793;-64
2021/12/21 00:31:31;;;;;;;37.30;17.60;;;;;;;-0.94;79.24;100430.03;346022;28;1813;-65
2021/12/21 00:31:43;;;;;;;39.83;18.30;;;;;;;-0.92;79.59;100430.94;346299;28;1193;-64
2021/12/21 00:31:55;;;;;;;38.72;16.88;;;;;;;-0.92;79.75;100428.41;346312;28;1045;-65
2021/12/21 00:32:08;;;;;;;35.33;15.85;;;;;;;-0.90;79.42;100431.00;344962;28;1055;-65
2021/12/21 00:32:21;;;;;;;35.33;16.45;;;;;;;-0.88;79.75;100431.91;344925;28;1184;-64
2021/12/21 00:32:33;;;;;;;36.10;17.45;;;;;;;-0.87;79.31;100431.06;344872;28;1326;-65
2021/12/21 00:32:45;;;;;;;37.40;17.75;;;;;;;-0.88;79.32;100429.34;344872;28;1043;-65
2021/12/21 00:32:57;;;;;;;42.60;19.52;;;;;;;-0.88;79.30;100430.22;344149;28;1566;-65
2021/12/21 00:33:09;;;;;;;45.92;21.55;;;;;;;-0.88;79.55;100420.00;345118;28;1135;-65
2021/12/21 00:33:21;;;;;;;44.63;21.45;;;;;;;-0.87;79.71;100421.72;344772;28;1180;-65
2021/12/21 00:33:34;;;;;;;41.13;20.25;;;;;;;-0.85;79.30;100425.16;344473;28;1097;-65
2021/12/21 00:33:47;;;;;;;38.22;19.77;;;;;;;-0.81;79.26;100426.13;345229;28;1015;-65
2021/12/21 00:33:59;;;;;;;43.00;20.25;;;;;;;-0.81;79.27;100421.88;345161;28;1110;-65
2021/12/21 00:34:11;;;;;;;43.60;20.73;;;;;;;-0.82;78.96;100427.81;345273;28;1316;-65
2021/12/21 00:34:25;;;;;;;40.92;19.90;;;;;;;-0.83;79.26;100425.22;344676;28;1210;-65
2021/12/21 00:34:38;;;;;;;41.68;19.88;;;;;;;-0.83;79.80;100428.63;344649;28;1964;-65
2021/12/21 00:34:50;;;;;;;44.95;20.88;;;;;;;-0.83;79.62;100427.75;344809;28;1105;-65
2021/12/21 00:35:03;;;;;;;44.22;20.38;;;;;;;-0.81;79.37;100424.41;344660;28;1585;-65
2021/12/21 00:35:16;;;;;;;42.83;19.98;;;;;;;-0.78;79.23;100422.81;344692;28;1364;-65
2021/12/21 00:35:28;;;;;;;45.03;20.23;;;;;;;-0.81;79.50;100426.97;344519;28;1288;-65
2021/12/21 00:35:40;;;;;;;44.45;20.10;;;;;;;-0.83;79.74;100425.22;344760;28;1119;-65
2021/12/21 00:35:52;;;;;;;43.70;20.80;;;;;;;-0.84;79.62;100421.81;344860;28;1062;-65
2021/12/21 00:36:04;;;;;;;46.83;22.13;;;;;;;-0.89;80.07;100431.00;343550;28;1638;-65
2021/12/21 00:36:19;;;;;;;48.28;22.67;;;;;;;-0.93;80.26;100419.00;343612;28;1083;-65
2021/12/21 00:36:32;;;;;;;50.25;22.73;;;;;;;-1.00;79.99;100424.78;344474;28;1883;-65
2021/12/21 00:36:46;;;;;;;47.85;22.52;;;;;;;-1.01;80.39;100426.47;344782;28;1051;-65
2021/12/21 00:36:58;;;;;;;44.45;22.67;;;;;;;-0.99;80.47;100426.50;345132;28;1349;-65
2021/12/21 00:37:10;;;;;;;45.45;22.27;;;;;;;-0.95;79.90;100422.34;346216;28;1293;-65
2021/12/21 00:37:26;;;;;;;44.83;21.33;;;;;;;-0.99;80.31;100431.59;345804;28;1681;-65
2021/12/21 00:37:41;;;;;;;48.67;22.90;;;;;;;-1.02;80.50;100428.97;344421;28;1237;-64
2021/12/21 00:37:53;;;;;;;46.25;22.58;;;;;;;-1.00;80.41;100424.78;344916;28;1051;-65
2021/12/21 00:38:05;;;;;;;42.30;21.52;;;;;;;-1.03;80.22;100427.25;344893;28;1222;-64
2021/12/21 00:38:17;;;;;;;42.47;21.58;;;;;;;-1.01;80.31;100425.59;344708;28;1602;-65
2021/12/21 00:38:29;;;;;;;43.53;21.60;;;;;;;-1.02;80.37;100426.44;345048;28;1251;-64
2021/12/21 00:38:43;;;;;;;44.53;21.05;;;;;;;-1.04;80.59;100428.06;344957;28;1315;-65
2021/12/21 00:38:57;;;;;;;45.83;22.33;;;;;;;-1.03;80.60;100430.69;344953;28;1090;-65
2021/12/21 00:39:12;;;;;;;48.00;22.17;;;;;;;-1.02;80.74;100426.44;344951;28;1015;-65
2021/12/21 00:39:24;;;;;;;48.50;21.85;;;;;;;-1.00;80.20;100424.78;345067;28;1105;-65
2021/12/21 00:39:36;;;;;;;48.35;22.58;;;;;;;-0.98;79.96;100423.13;344741;28;1055;-64
2021/12/21 00:39:48;;;;;;;49.85;22.20;;;;;;;-1.01;79.79;100420.47;344894;28;1134;-65
2021/12/21 00:40:00;;;;;;;48.65;21.50;;;;;;;-1.01;79.98;100425.59;344678;28;1564;-65
2021/12/21 00:40:13;;;;;;;48.72;22.45;;;;;;;-1.00;79.96;100419.69;344539;28;1260;-65
2021/12/21 00:40:25;;;;;;;44.16;21.76;;;;;;;-0.97;79.20;100419.75;344746;28;1048;-65
2021/12/21 00:40:37;;;;;;;43.65;21.23;;;;;;;-0.97;79.09;100424.84;344786;28;1556;-65
2021/12/21 00:40:49;;;;;;;41.13;19.92;;;;;;;-0.95;78.78;100422.34;345029;28;1011;-65
2021/12/21 00:41:01;;;;;;;38.33;19.35;;;;;;;-0.94;78.55;100422.38;344814;28;1334;-64
2021/12/21 00:41:14;;;;;;;36.28;17.20;;;;;;;-0.98;78.12;100422.28;345188;28;1026;-65
2021/12/21 00:41:26;;;;;;;37.58;15.75;;;;;;;-1.00;78.33;100419.69;345221;28;1066;-65
2021/12/21 00:41:38;;;;;;;35.45;15.50;;;;;;;-1.01;78.85;100421.38;345081;28;1231;-65
2021/12/21 00:41:50;;;;;;;33.25;15.32;;;;;;;-1.12;79.19;100424.47;344562;28;1838;-65
2021/12/21 00:42:03;;;;;;;31.25;15.30;;;;;;;-1.12;79.78;100419.34;343895;28;1906;-65
2021/12/21 00:42:15;;;;;;;32.30;15.32;;;;;;;-1.08;79.82;100416.06;343712;28;1269;-64
2021/12/21 00:42:27;;;;;;;31.95;15.23;;;;;;;-1.06;79.40;100416.97;345239;28;1262;-64
2021/12/21 00:42:39;;;;;;;35.08;15.35;;;;;;;-1.05;79.31;100423.78;345183;28;1046;-65
2021/12/21 00:42:51;;;;;;;33.30;14.80;;;;;;;-1.06;79.34;100424.63;345227;28;1070;-65
2021/12/21 00:43:03;;;;;;;29.80;14.93;;;;;;;-1.03;80.00;100424.69;345073;28;1631;-65
2021/12/21 00:43:15;;;;;;;33.42;15.95;;;;;;;-1.00;79.58;100424.78;345085;28;1200;-64
2021/12/21 00:43:27;;;;;;;34.25;15.77;;;;;;;-0.98;80.00;100428.25;345098;28;1077;-64
2021/12/21 00:43:40;;;;;;;35.97;15.43;;;;;;;-0.95;79.53;100422.34;344635;28;2282;-65
2021/12/21 00:43:52;;;;;;;36.63;16.67;;;;;;;-0.94;79.57;100417.28;344798;28;1786;-64
2021/12/21 00:44:05;;;;;;;35.70;17.17;;;;;;;-0.93;79.77;100418.16;344958;28;1216;-65
2021/12/21 00:44:17;;;;;;;35.05;17.27;;;;;;;-0.91;79.60;100426.69;345123;28;1232;-65
2021/12/21 00:44:29;;;;;;;34.60;17.75;;;;;;;-0.91;79.59;100419.91;345111;28;1093;-64
2021/12/21 00:44:41;;;;;;;32.58;16.38;;;;;;;-0.89;79.81;100428.47;345197;28;1073;-64
2021/12/21 00:44:53;;;;;;;33.72;16.67;;;;;;;-0.91;79.55;100419.91;345142;28;1228;-65
2021/12/21 00:45:06;;;;;;;36.38;18.17;;;;;;;-0.89;79.81;100417.41;345127;28;1302;-64
2021/12/21 00:45:18;;;;;;;38.40;18.67;;;;;;;-0.87;79.33;100418.31;345097;28;1046;-65
2021/12/21 00:45:30;;;;;;;35.60;18.15;;;;;;;-0.87;79.50;100419.16;344226;28;1800;-65
2021/12/21 00:45:42;;;;;;;40.15;18.38;;;;;;;-0.85;79.54;100414.94;343402;28;1132;-65
2021/12/21 00:45:55;;;;;;;40.20;18.20;;;;;;;-0.85;79.03;100414.94;343682;28;761;-65
2021/12/21 00:46:07;;;;;;;38.28;18.25;;;;;;;-0.84;79.19;100416.69;343377;28;1091;-64
2021/12/21 00:46:19;;;;;;;34.92;17.33;;;;;;;-0.86;78.98;100417.50;343372;28;1173;-64
2021/12/21 00:46:32;;;;;;;34.95;17.15;;;;;;;-0.88;78.82;100414.91;343348;28;1253;-65
2021/12/21 00:46:44;;;;;;;35.63;16.75;;;;;;;-0.86;79.25;100417.50;342147;28;1035;-64
2021/12/21 00:46:56;;;;;;;37.70;16.13;;;;;;;-0.86;78.88;100412.38;342140;28;1424;-65
2021/12/21 00:47:08;;;;;;;34.75;15.85;;;;;;;-0.87;79.21;100411.50;342073;28;1055;-64
2021/12/21 00:47:21;;;;;;;30.55;16.00;;;;;;;-0.89;79.12;100413.16;342076;28;1256;-64
2021/12/21 00:47:35;;;;;;;33.08;16.55;;;;;;;-0.85;79.41;100412.41;342732;28;2027;-65
2021/12/21 00:47:49;;;;;;;34.85;16.73;;;;;;;-0.86;79.22;100413.25;344220;28;2089;-65
2021/12/21 00:48:01;;;;;;;34.33;16.67;;;;;;;-0.88;79.58;100417.44;344494;28;1425;-65
2021/12/21 00:48:15;;;;;;;37.00;17.13;;;;;;;-0.92;79.79;100413.09;345101;28;1140;-65
2021/12/21 00:48:29;;;;;;;36.03;17.00;;;;;;;-0.91;80.03;100408.84;344931;28;1071;-65
2021/12/21 00:48:50;;;;;;;35.17;18.00;;;;;;;-0.94;79.85;100419.84;344456;28;1776;-64
2021/12/21 00:49:13;;;;;;;36.90;18.45;;;;;;;-0.98;79.96;100414.63;344918;28;1652;-65
2021/12/21 00:49:26;;;;;;;35.35;17.20;;;;;;;-0.99;79.99;100413.72;345134;28;1097;-64
2021/12/21 00:49:44;;;;;;;32.42;15.68;;;;;;;-0.94;79.91;100403.66;345290;28;766;-65
2021/12/21 00:50:01;;;;;;;35.17;16.42;;;;;;;-0.96;79.83;100413.81;344862;28;2306;-64
2021/12/21 00:50:17;;;;;;;38.55;17.30;;;;;;;-1.01;79.85;100408.63;344783;28;1724;-65
2021/12/21 00:50:29;;;;;;;37.10;17.60;;;;;;;-1.08;80.30;100410.97;344827;28;1305;-64
2021/12/21 00:50:42;;;;;;;36.83;17.95;;;;;;;-1.09;80.40;100417.72;345191;28;1121;-64
2021/12/21 00:50:56;;;;;;;37.17;18.05;;;;;;;-1.06;80.60;100409.31;345175;28;1070;-65
2021/12/21 00:51:08;;;;;;;37.10;17.75;;;;;;;-1.05;80.29;100416.13;343637;28;1067;-65
2021/12/21 00:51:23;;;;;;;35.90;17.05;;;;;;;-1.02;80.33;100416.22;343683;28;1220;-64
2021/12/21 00:51:35;;;;;;;41.33;16.40;;;;;;;-1.07;79.98;100415.22;343603;28;1154;-65
2021/12/21 00:51:47;;;;;;;42.30;16.48;;;;;;;-1.08;79.94;100416.06;343826;28;1172;-65
2021/12/21 00:51:59;;;;;;;35.95;16.73;;;;;;;-1.12;80.12;100414.25;344252;28;2170;-65
2021/12/21 00:52:15;;;;;;;33.05;16.75;;;;;;;-1.13;79.94;100412.50;345164;28;1876;-65
2021/12/21 00:52:27;;;;;;;35.42;17.30;;;;;;;-1.16;79.92;100412.44;345145;28;1130;-65
2021/12/21 00:52:39;;;;;;;34.22;16.90;;;;;;;-1.14;79.79;100410.78;344039;28;1771;-65
2021/12/21 00:52:52;;;;;;;37.22;16.15;;;;;;;-1.18;79.94;100411.53;343641;28;1279;-65
2021/12/21 00:53:05;;;;;;;37.28;15.98;;;;;;;-1.15;79.05;100409.06;344732;28;1686;-65
2021/12/21 00:53:17;;;;;;;38.40;16.17;;;;;;;-1.11;78.83;100410.88;345157;28;1060;-65
2021/12/21 00:53:29;;;;;;;33.58;15.50;;;;;;;-1.11;78.39;100410.88;344981;28;1027;-65
2021/12/21 00:53:41;;;;;;;32.65;15.23;;;;;;;-1.10;78.10;100412.59;345234;28;1096;-65
2021/12/21 00:53:55;;;;;;;32.35;15.25;;;;;;;-1.11;77.98;100415.97;346464;28;1101;-64
2021/12/21 00:54:07;;;;;;;32.13;15.43;;;;;;;-1.07;77.76;100410.97;346176;28;1245;-64
2021/12/21 00:54:19;;;;;;;28.90;14.90;;;;;;;-1.06;77.71;100409.31;345948;28;1306;-64
2021/12/21 00:54:31;;;;;;;27.85;14.73;;;;;;;-1.09;77.54;100404.97;346238;28;1117;-65
2021/12/21 00:54:43;;;;;;;28.02;15.10;;;;;;;-1.10;77.74;100408.34;346294;28;1295;-65
2021/12/21 00:54:56;;;;;;;29.45;15.73;;;;;;;-1.11;77.31;100418.50;346231;28;1074;-65
2021/12/21 00:55:08;;;;;;;29.45;15.85;;;;;;;-1.11;77.19;100411.72;345691;28;1784;-65
2021/12/21 00:55:22;;;;;;;28.45;15.27;;;;;;;-1.12;77.07;100414.25;344853;28;781;-65
2021/12/21 00:55:34;;;;;;;32.45;15.07;;;;;;;-1.13;76.93;100413.38;344909;28;2055;-64
2021/12/21 00:55:46;;;;;;;36.22;15.88;;;;;;;-1.11;76.86;100413.41;344932;28;1259;-65
2021/12/21 00:55:58;;;;;;;33.90;15.35;;;;;;;-1.13;77.17;100409.97;344409;28;1622;-65
2021/12/21 00:56:10;;;;;;;30.88;15.35;;;;;;;-1.11;77.26;100403.22;344380;28;1684;-64
2021/12/21 00:56:22;;;;;;;31.73;15.43;;;;;;;-1.10;76.78;100407.50;344982;28;1257;-64
2021/12/21 00:56:34;;;;;;;30.13;14.95;;;;;;;-1.10;76.60;100410.91;344692;28;1874;-65
2021/12/21 00:56:46;;;;;;;29.30;14.15;;;;;;;-1.10;76.53;100403.25;346040;28;1069;-65
2021/12/21 00:56:58;;;;;;;28.60;13.80;;;;;;;-1.12;76.39;100414.25;345771;28;1323;-65
2021/12/21 00:57:10;;;;;;;28.73;13.68;;;;;;;-1.12;76.73;100412.56;344690;28;1226;-65
2021/12/21 00:57:22;;;;;;;28.48;13.65;;;;;;;-1.11;76.50;100405.75;344242;28;2069;-64
2021/12/21 00:57:34;;;;;;;27.77;14.00;;;;;;;-1.10;77.05;100407.50;346136;28;1355;-65
2021/12/21 00:57:47;;;;;;;28.45;14.63;;;;;;;-1.12;76.48;100409.16;346032;28;1245;-65
2021/12/21 00:57:59;;;;;;;29.38;14.90;;;;;;;-1.12;76.65;100409.16;345738;28;1643;-65
2021/12/21 00:58:12;;;;;;;29.23;14.65;;;;;;;-1.12;76.16;100410.00;344926;28;1276;-64
2021/12/21 00:58:24;;;;;;;26.80;13.60;;;;;;;-1.16;76.47;100412.44;345129;28;851;-65
2021/12/21 00:58:36;;;;;;;28.02;13.63;;;;;;;-1.15;76.45;100403.94;344887;28;1030;-65
2021/12/21 00:58:48;;;;;;;26.80;14.07;;;;;;;-1.16;75.95;100407.34;344675;28;2094;-65
2021/12/21 00:59:00;;;;;;;27.27;14.13;;;;;;;-1.19;76.46;100409.78;344431;28;1822;-65
2021/12/21 00:59:13;;;;;;;28.80;14.05;;;;;;;-1.22;76.70;100406.34;344998;28;1050;-64
2021/12/21 00:59:25;;;;;;;31.60;14.25;;;;;;;-1.22;76.37;100403.78;345175;28;1074;-64
2021/12/21 00:59:37;;;;;;;30.23;14.15;;;;;;;-1.23;76.95;100407.19;343849;28;1327;-65
2021/12/21 00:59:49;;;;;;;26.80;13.50;;;;;;;-1.24;76.74;100407.97;343770;28;1165;-65
2021/12/21 01:00:01;;;;;;;25.20;13.40;;;;;;;-1.22;76.70;100403.78;343855;28;1735;-65
2021/12/21 01:00:16;;;;;;;25.55;13.50;;;;;;;-1.27;77.14;100409.56;344126;28;1834;-65
2021/12/21 01:00:28;;;;;;;27.05;12.82;;;;;;;-1.29;77.32;100407.00;343583;28;996;-65
2021/12/21 01:00:41;;;;;;;26.77;12.95;;;;;;;-1.31;77.68;100410.31;343674;28;1083;-64
2021/12/21 01:00:53;;;;;;;26.48;13.43;;;;;;;-1.28;77.44;100406.16;343737;28;1035;-65
2021/12/21 01:01:07;;;;;;;25.70;13.73;;;;;;;-1.28;77.36;100403.63;343692;28;1887;-64
2021/12/21 01:01:19;;;;;;;26.30;13.65;;;;;;;-1.32;77.48;100412.00;343862;28;1090;-65
2021/12/21 01:01:35;;;;;;;31.02;13.80;;;;;;;-1.35;77.07;100414.47;343857;28;1181;-65
2021/12/21 01:01:47;;;;;;;32.90;14.18;;;;;;;-1.36;77.11;100415.31;343828;28;1105;-65
2021/12/21 01:02:00;;;;;;;28.73;13.52;;;;;;;-1.37;77.07;100408.47;343948;28;1810;-65
2021/12/21 01:02:12;;;;;;;27.70;13.15;;;;;;;-1.35;76.87;100409.38;344988;28;1916;-65
2021/12/21 01:02:25;;;;;;;26.75;12.90;;;;;;;-1.36;76.82;100405.09;344852;28;1724;-65
2021/12/21 01:02:38;;;;;;;23.80;12.27;;;;;;;-1.34;76.61;100402.59;343693;28;1038;-65
2021/12/21 01:02:51;;;;;;;23.25;12.15;;;;;;;-1.36;76.22;100400.00;343920;28;775;-65
2021/12/21 01:03:08;;;;;;;21.35;12.52;;;;;;;-1.36;76.13;100410.19;344612;28;1528;-65
2021/12/21 01:03:21;;;;;;;23.73;12.27;;;;;;;-1.35;76.36;100409.38;345167;28;1316;-65
2021/12/21 01:03:44;;;;;;;26.38;12.07;;;;;;;-1.37;75.94;100408.47;345232;28;1050;-65
2021/12/21 01:03:58;;;;;;;26.30;11.63;;;;;;;-1.35;76.17;100411.91;345118;28;1324;-65
2021/12/21 01:04:22;;;;;;;24.83;11.25;;;;;;;-1.36;76.16;100411.91;345258;28;1240;-65
2021/12/21 01:04:40;;;;;;;20.58;10.52;;;;;;;-1.39;77.08;100404.13;345108;28;1058;-65
2021/12/21 01:04:52;;;;;;;22.83;11.20;;;;;;;-1.38;77.87;100403.34;345093;28;1034;-65
2021/12/21 01:05:10;;;;;;;24.70;11.10;;;;;;;-1.41;78.14;100407.53;344689;28;1821;-65
2021/12/21 01:05:31;;;;;;;21.02;9.93;;;;;;;-1.47;78.43;100411.56;343398;28;1099;-65
2021/12/21 01:06:04;;;;;;;22.17;9.55;;;;;;;-1.49;79.10;100408.13;343768;28;1744;-65
2021/12/21 01:06:26;;;;;;;24.08;9.27;;;;;;;-1.40;79.32;100403.28;343566;28;1203;-65
2021/12/21 01:06:42;;;;;;;19.75;9.07;;;;;;;-1.36;79.47;100412.75;343503;28;1309;-65
2021/12/21 01:07:37;;;;;;;17.65;8.23;;;;;;;-1.28;79.33;100408.72;344837;28;1196;-65
2021/12/21 01:07:42;;;;;;;18.92;9.15;;;;;;;-1.32;79.48;100401.81;343547;28;1048;-65
2021/12/21 01:07:52;;;;;;;21.25;8.98;;;;;;;-1.22;79.36;100405.47;344393;28;1780;-65
2021/12/21 01:08:06;;;;;;;17.83;8.25;;;;;;;-1.22;78.83;100403.78;344963;28;2100;-65
2021/12/21 01:08:23;;;;;;;17.45;8.00;;;;;;;-1.21;79.40;100410.63;345002;28;1159;-65
2021/12/21 01:08:47;;;;;;;22.33;8.50;;;;;;;-1.24;79.31;100404.56;344901;28;1086;-64
2021/12/21 01:09:17;;;;;;;20.50;8.43;;;;;;;-1.28;79.70;100407.88;344937;28;1534;-65
2021/12/21 01:10:12;;;;;;;18.88;8.27;;;;;;;-1.23;79.65;100404.63;344921;28;1807;-65
2021/12/21 01:10:43;;;;;;;18.73;8.13;;;;;;;-1.18;80.12;100403.88;343895;28;1731;-65
2021/12/21 01:11:20;;;;;;;22.52;8.38;;;;;;;-1.15;79.55;100403.94;343446;28;1070;-65
2021/12/21 01:11:37;;;;;;;17.30;8.32;;;;;;;-1.14;79.63;100405.69;343770;28;1905;-64
2021/12/21 01:11:53;;;;;;;19.88;8.27;;;;;;;-1.14;79.80;100408.25;343558;28;1055;-65
2021/12/21 01:12:11;;;;;;;20.42;8.13;;;;;;;-1.15;79.63;100414.16;344797;28;1810;-65
2021/12/21 01:12:52;;;;;;;17.92;8.50;;;;;;;-1.17;79.61;100400.50;344943;28;1196;-65
2021/12/21 01:13:30;;;;;;;18.30;8.02;;;;;;;-1.15;79.32;100404.81;342146;28;3239;-65
2021/12/21 01:13:45;;;;;;;15.70;7.90;;;;;;;-1.16;79.06;100408.19;343627;28;1247;-65
2021/12/21 01:15:11;;;;;;;15.93;8.43;;;;;;;-1.27;78.57;100405.38;343736;28;2026;-65
2021/12/21 01:16:38;;;;;;;14.88;7.40;;;;;;;-1.28;77.68;100403.63;344340;28;1866;-65
2021/12/21 01:16:49;;;;;;;17.75;7.93;;;;;;;-1.27;77.15;100402.81;343640;28;2298;-65
2021/12/21 01:17:30;;;;;;;16.35;7.53;;;;;;;-1.28;77.15;100400.22;344132;28;2117;-65